Time;durP1;ratioP1;P1;durP2;ratioP2;P2;SDS_P1;SDS_P2;PMS_P1;PMS_P2;Temp;Humidity;BMP_temperature;BMP_pressure;BME280_temperature;BME280_humidity;BME280_pressure;Samples;Min_cycle;Max_cycle;Signal;HPM_P1;HPM_P2
2021/10/26 04:00:41;;;;;;;37.88;23.77;;;10.90;99.90;;;;;;5765581;23;20477;-72
2021/10/26 04:03:08;;;;;;;39.22;22.35;;;10.90;99.90;;;;;;4942615;28;20210;-72
2021/10/26 04:05:43;;;;;;;39.85;24.17;;;10.90;99.90;;;;;;4952847;29;20224;-72
2021/10/26 04:08:21;;;;;;;37.92;23.65;;;10.80;99.90;;;;;;4951988;28;20209;-72
2021/10/26 04:10:51;;;;;;;42.85;24.50;;;10.80;99.90;;;;;;4952921;29;20300;-72
2021/10/26 04:13:18;;;;;;;37.05;22.88;;;10.90;99.90;;;;;;4940974;29;20280;-72
2021/10/26 04:15:46;;;;;;;36.00;23.80;;;10.90;99.90;;;;;;4952875;29;20209;-71
2021/10/26 04:18:12;;;;;;;38.10;23.83;;;10.90;99.90;;;;;;4940579;28;20201;-71
2021/10/26 04:20:39;;;;;;;31.10;21.90;;;10.90;99.90;;;;;;4952763;28;20300;-71
2021/10/26 04:23:06;;;;;;;31.05;22.02;;;10.90;99.90;;;;;;4941995;29;20220;-71
2021/10/26 04:25:33;;;;;;;31.42;22.77;;;10.90;99.90;;;;;;4937591;29;20633;-71
2021/10/26 04:27:59;;;;;;;28.50;21.33;;;10.80;99.90;;;;;;4938014;29;20213;-72
2021/10/26 04:30:26;;;;;;;36.85;22.30;;;10.80;99.90;;;;;;4956226;28;20263;-71
2021/10/26 04:32:55;;;;;;;34.03;22.80;;;10.80;99.90;;;;;;4944811;28;20213;-71
2021/10/26 04:35:21;;;;;;;35.13;22.52;;;10.70;99.90;;;;;;4956551;29;20215;-71
2021/10/26 04:37:48;;;;;;;26.75;19.38;;;10.60;99.90;;;;;;4945891;29;20241;-70
2021/10/26 04:40:15;;;;;;;30.75;20.90;;;10.60;99.90;;;;;;4955295;29;20211;-70
2021/10/26 04:42:41;;;;;;;32.90;22.70;;;10.60;99.90;;;;;;4947311;29;20639;-71
2021/10/26 04:45:09;;;;;;;34.38;22.75;;;10.60;99.90;;;;;;4953564;29;20292;-71
2021/10/26 04:47:35;;;;;;;34.13;21.55;;;10.50;99.90;;;;;;4948011;29;20282;-71
2021/10/26 04:50:04;;;;;;;36.53;22.48;;;10.50;99.90;;;;;;4952635;29;20614;-70
2021/10/26 04:52:31;;;;;;;34.70;22.45;;;10.50;99.90;;;;;;4937530;29;20771;-70
2021/10/26 04:54:57;;;;;;;32.67;22.05;;;10.50;99.90;;;;;;4936834;29;20206;-72
2021/10/26 04:57:24;;;;;;;31.55;20.25;;;10.50;99.90;;;;;;4945482;29;20268;-71
2021/10/26 04:59:51;;;;;;;29.80;20.77;;;10.50;99.90;;;;;;4954851;29;20217;-71
2021/10/26 05:02:18;;;;;;;36.30;23.00;;;10.50;99.90;;;;;;4935209;29;20240;-72
2021/10/26 05:04:44;;;;;;;30.95;20.27;;;10.50;99.90;;;;;;4936971;29;20202;-71
2021/10/26 05:07:13;;;;;;;38.55;22.23;;;10.50;99.90;;;;;;4937634;29;20273;-70
2021/10/26 05:09:39;;;;;;;32.03;20.75;;;10.50;99.90;;;;;;4937630;29;20257;-71
2021/10/26 05:12:07;;;;;;;35.47;22.40;;;10.60;99.90;;;;;;4937903;29;20234;-71
2021/10/26 05:14:34;;;;;;;36.10;22.45;;;10.60;99.90;;;;;;4936198;29;20265;-70
2021/10/26 05:17:03;;;;;;;33.17;22.88;;;10.70;99.90;;;;;;4938977;29;20222;-70
2021/10/26 05:19:31;;;;;;;38.08;23.75;;;10.70;99.90;;;;;;4935854;29;20210;-72
2021/10/26 05:21:58;;;;;;;36.78;22.33;;;10.70;99.90;;;;;;4953511;29;20316;-70
2021/10/26 05:24:30;;;;;;;36.65;22.73;;;10.70;99.90;;;;;;4952808;29;20414;-70
2021/10/26 05:26:57;;;;;;;31.20;20.92;;;10.70;99.90;;;;;;4942371;29;20244;-71
2021/10/26 05:29:23;;;;;;;38.53;21.83;;;10.70;99.90;;;;;;4952942;28;20560;-70
2021/10/26 05:31:50;;;;;;;40.25;23.10;;;10.80;99.90;;;;;;4935720;29;20225;-70
2021/10/26 05:34:17;;;;;;;35.53;21.92;;;10.70;99.90;;;;;;4954590;28;20300;-71
2021/10/26 05:36:44;;;;;;;36.05;23.20;;;10.80;99.90;;;;;;4935577;29;20230;-70
2021/10/26 05:39:11;;;;;;;36.58;22.80;;;10.80;99.90;;;;;;4951774;29;20238;-71
2021/10/26 05:41:40;;;;;;;36.05;21.98;;;10.80;99.90;;;;;;4935348;29;20368;-71
2021/10/26 05:44:06;;;;;;;30.85;22.30;;;10.80;99.90;;;;;;4935672;29;20292;-71
2021/10/26 05:46:33;;;;;;;37.13;22.85;;;10.80;99.90;;;;;;4934127;29;20202;-72
2021/10/26 05:49:01;;;;;;;33.65;22.45;;;10.90;99.90;;;;;;4935505;29;20556;-71
2021/10/26 05:51:27;;;;;;;41.30;23.38;;;10.80;99.90;;;;;;4935769;29;20261;-71
2021/10/26 05:53:54;;;;;;;34.28;21.95;;;10.90;99.90;;;;;;4935581;29;20221;-71
2021/10/26 05:56:23;;;;;;;33.53;22.20;;;10.90;99.90;;;;;;4935725;29;20544;-71
2021/10/26 05:58:53;;;;;;;37.33;22.30;;;10.90;99.90;;;;;;4935537;29;20217;-72
2021/10/26 06:01:21;;;;;;;34.47;22.70;;;11.00;99.90;;;;;;4936717;29;20246;-71
2021/10/26 06:03:47;;;;;;;37.63;23.88;;;11.00;99.90;;;;;;4935601;29;20206;-72
2021/10/26 06:06:14;;;;;;;30.92;22.75;;;11.00;99.90;;;;;;4945703;29;20228;-72
2021/10/26 06:08:41;;;;;;;36.65;22.08;;;11.10;99.90;;;;;;4944725;28;20206;-71
2021/10/26 06:11:10;;;;;;;34.20;21.85;;;11.10;99.90;;;;;;4945634;29;20232;-70
2021/10/26 06:13:41;;;;;;;31.10;22.50;;;11.10;99.90;;;;;;4945374;29;20206;-70
2021/10/26 06:16:09;;;;;;;32.75;21.77;;;11.10;99.90;;;;;;4936618;29;20225;-72
2021/10/26 06:18:35;;;;;;;31.27;22.48;;;11.20;99.90;;;;;;4935291;29;20293;-73
2021/10/26 06:21:02;;;;;;;30.23;21.10;;;11.20;99.90;;;;;;4936579;29;20269;-70
2021/10/26 06:23:30;;;;;;;31.25;19.88;;;11.20;99.90;;;;;;4935170;29;20223;-70
2021/10/26 06:25:58;;;;;;;31.17;21.15;;;11.20;99.90;;;;;;4936569;29;20256;-70
2021/10/26 06:28:25;;;;;;;35.92;21.52;;;11.20;99.90;;;;;;4953663;29;20201;-71
2021/10/26 06:30:51;;;;;;;35.35;21.70;;;11.30;99.90;;;;;;4933745;29;20230;-71
2021/10/26 06:33:19;;;;;;;32.50;21.42;;;11.30;99.90;;;;;;4931942;29;20210;-71
2021/10/26 06:35:46;;;;;;;36.17;22.40;;;11.30;99.90;;;;;;4935095;29;20213;-71
2021/10/26 06:38:13;;;;;;;34.08;23.60;;;11.30;99.90;;;;;;4934897;29;20244;-72
2021/10/26 06:40:39;;;;;;;30.70;21.60;;;11.30;99.90;;;;;;4936930;29;20297;-70
2021/10/26 06:43:06;;;;;;;33.05;20.15;;;11.40;99.90;;;;;;4947112;28;20205;-72
2021/10/26 06:45:33;;;;;;;36.25;21.58;;;11.30;99.90;;;;;;4940104;29;20213;-70
2021/10/26 06:48:00;;;;;;;35.60;21.20;;;11.40;99.90;;;;;;4915140;29;20215;-70
2021/10/26 06:50:28;;;;;;;31.40;21.15;;;11.40;99.90;;;;;;4931610;29;20213;-73
2021/10/26 06:52:54;;;;;;;32.00;21.60;;;11.40;99.90;;;;;;4934785;29;20214;-72
2021/10/26 06:55:21;;;;;;;30.65;20.20;;;11.40;99.90;;;;;;4934804;29;20206;-70
2021/10/26 06:57:49;;;;;;;30.80;19.88;;;11.40;99.90;;;;;;4934003;29;20658;-69
2021/10/26 07:00:17;;;;;;;30.02;19.88;;;11.40;99.90;;;;;;4936525;29;20209;-70
2021/10/26 07:02:48;;;;;;;28.25;20.40;;;11.40;99.90;;;;;;4932693;29;20213;-70
2021/10/26 07:05:19;;;;;;;30.88;20.27;;;11.40;99.90;;;;;;4931868;29;20734;-71
2021/10/26 07:07:47;;;;;;;27.83;20.58;;;11.40;99.90;;;;;;4932042;29;20208;-70
2021/10/26 07:10:14;;;;;;;29.55;20.05;;;11.50;99.90;;;;;;4941892;29;20265;-70
2021/10/26 07:12:41;;;;;;;28.65;18.33;;;11.50;99.90;;;;;;4953079;29;20209;-72
2021/10/26 07:15:09;;;;;;;32.63;21.75;;;11.50;99.90;;;;;;4942073;28;20226;-72
2021/10/26 07:17:36;;;;;;;25.23;18.05;;;11.60;99.90;;;;;;4933377;29;20229;-71
2021/10/26 07:20:05;;;;;;;30.02;19.13;;;11.60;99.90;;;;;;4934506;29;20217;-71
2021/10/26 07:22:31;;;;;;;27.48;19.45;;;11.70;99.90;;;;;;4933829;29;20461;-71
2021/10/26 07:25:03;;;;;;;24.45;18.23;;;11.70;99.90;;;;;;4934027;29;20202;-70
2021/10/26 07:27:30;;;;;;;25.63;18.75;;;11.80;99.90;;;;;;4934323;29;20630;-71
2021/10/26 07:29:57;;;;;;;23.45;18.67;;;11.80;99.90;;;;;;4922061;29;20202;-70
2021/10/26 07:32:24;;;;;;;25.40;17.98;;;11.80;99.90;;;;;;4933803;29;20241;-70
2021/10/26 07:34:50;;;;;;;26.17;18.80;;;11.80;99.90;;;;;;4934871;29;20238;-70
2021/10/26 07:37:22;;;;;;;24.30;17.50;;;11.80;99.90;;;;;;4939741;29;20233;-71
2021/10/26 07:39:51;;;;;;;19.67;16.73;;;11.90;99.90;;;;;;4933735;29;20961;-71
2021/10/26 07:42:21;;;;;;;23.27;16.30;;;11.90;99.90;;;;;;4939436;29;20953;-71
2021/10/26 07:44:49;;;;;;;19.40;16.50;;;11.90;99.90;;;;;;4926927;29;20213;-74
2021/10/26 07:47:17;;;;;;;22.67;17.30;;;11.90;99.90;;;;;;4933251;29;20214;-71
2021/10/26 07:49:45;;;;;;;26.40;17.35;;;11.90;99.90;;;;;;4933752;29;20265;-70
2021/10/26 07:52:12;;;;;;;26.40;16.67;;;11.90;99.90;;;;;;4936183;29;20229;-70
2021/10/26 07:54:41;;;;;;;22.13;15.87;;;12.00;99.90;;;;;;4933266;29;20224;-70
2021/10/26 07:57:09;;;;;;;22.27;16.27;;;12.00;99.90;;;;;;4944596;29;20508;-70
2021/10/26 07:59:37;;;;;;;22.40;16.75;;;12.00;99.90;;;;;;4933362;29;20234;-70
2021/10/26 08:02:04;;;;;;;21.70;16.53;;;12.10;99.90;;;;;;4933167;29;20738;-70
2021/10/26 08:04:31;;;;;;;20.75;16.08;;;12.10;99.90;;;;;;4933270;29;20540;-71
2021/10/26 08:07:00;;;;;;;23.57;15.80;;;12.20;99.90;;;;;;4933483;29;20306;-70
2021/10/26 08:09:26;;;;;;;23.83;17.20;;;12.20;99.90;;;;;;4933064;29;20891;-72
2021/10/26 08:11:53;;;;;;;19.52;15.40;;;12.30;99.90;;;;;;4932765;29;20489;-70
2021/10/26 08:14:19;;;;;;;20.50;16.07;;;12.20;99.90;;;;;;4929575;29;20214;-70
2021/10/26 08:16:47;;;;;;;19.57;15.70;;;12.30;99.90;;;;;;4937599;29;20474;-73
2021/10/26 08:19:14;;;;;;;23.20;16.70;;;12.30;99.90;;;;;;4943504;29;20471;-70
2021/10/26 08:21:41;;;;;;;16.67;14.47;;;12.40;99.90;;;;;;4945483;29;20573;-71
2021/10/26 08:24:08;;;;;;;21.07;15.80;;;12.40;99.90;;;;;;4933641;29;20487;-70
2021/10/26 08:26:38;;;;;;;20.13;14.88;;;12.40;99.90;;;;;;4932856;29;20553;-71
2021/10/26 08:29:11;;;;;;;19.10;15.10;;;12.40;99.90;;;;;;4932935;29;20265;-71
2021/10/26 08:31:45;;;;;;;18.33;15.37;;;12.40;99.90;;;;;;4932009;29;21133;-70
2021/10/26 08:34:18;;;;;;;18.70;16.00;;;12.40;99.90;;;;;;4933423;29;20493;-70
2021/10/26 08:36:47;;;;;;;17.60;15.23;;;12.40;99.90;;;;;;4933320;29;20838;-73
2021/10/26 08:39:14;;;;;;;17.60;15.27;;;12.50;99.90;;;;;;4933981;29;20481;-70
2021/10/26 08:41:45;;;;;;;18.80;14.57;;;12.50;99.90;;;;;;4942609;28;20892;-70
2021/10/26 08:44:15;;;;;;;22.67;16.50;;;12.60;99.90;;;;;;4934752;29;20465;-71
2021/10/26 08:46:42;;;;;;;17.57;15.03;;;12.60;99.90;;;;;;4949174;29;20205;-71
2021/10/26 08:49:11;;;;;;;17.57;14.30;;;12.60;99.90;;;;;;4936783;29;20491;-70
2021/10/26 08:51:41;;;;;;;23.07;15.60;;;12.60;99.90;;;;;;4941887;29;20576;-70
2021/10/26 08:54:08;;;;;;;19.67;14.90;;;12.60;99.90;;;;;;4931689;29;20477;-74
2021/10/26 08:56:35;;;;;;;18.87;14.40;;;12.60;99.90;;;;;;4937111;29;20473;-70
2021/10/26 08:59:01;;;;;;;21.23;15.90;;;12.60;99.90;;;;;;4932415;29;20492;-73
2021/10/26 09:01:29;;;;;;;16.57;13.83;;;12.60;99.90;;;;;;4935826;29;20525;-73
2021/10/26 09:04:07;;;;;;;20.30;14.47;;;12.70;99.90;;;;;;4922293;29;20469;-72
2021/10/26 09:06:43;;;;;;;16.57;14.33;;;12.70;99.90;;;;;;4928436;29;20469;-73
2021/10/26 09:09:14;;;;;;;17.70;13.70;;;12.70;99.90;;;;;;4924241;29;20619;-73
2021/10/26 09:17:16;;;;;;;17.23;13.10;;;13.00;99.90;;;;;;4936858;29;20569;-73
2021/10/26 09:19:44;;;;;;;20.73;16.73;;;13.20;99.90;;;;;;4924406;29;20521;-70
2021/10/26 09:22:12;;;;;;;17.10;13.47;;;13.20;99.90;;;;;;4923627;29;20489;-71
2021/10/26 09:24:57;;;;;;;16.80;13.43;;;13.30;99.90;;;;;;4917382;29;20474;-70
2021/10/26 09:27:25;;;;;;;20.40;13.60;;;13.40;99.90;;;;;;4917513;29;20506;-70
2021/10/26 09:29:53;;;;;;;13.87;12.47;;;13.30;99.90;;;;;;4934041;29;20951;-70
2021/10/26 09:32:22;;;;;;;14.70;13.10;;;13.40;99.90;;;;;;4935677;29;20832;-72
2021/10/26 09:34:51;;;;;;;14.30;12.90;;;13.40;99.90;;;;;;4936299;29;20458;-71
2021/10/26 09:37:20;;;;;;;14.70;13.07;;;13.40;99.90;;;;;;4936063;29;20472;-71
2021/10/26 09:39:51;;;;;;;16.93;13.20;;;13.40;99.90;;;;;;4934803;29;21012;-71
2021/10/26 09:42:18;;;;;;;14.97;12.97;;;13.40;99.90;;;;;;4937656;29;20501;-71
2021/10/26 09:44:50;;;;;;;13.67;12.27;;;13.40;99.90;;;;;;4935078;29;20469;-72
2021/10/26 09:47:21;;;;;;;18.43;13.63;;;13.40;99.90;;;;;;4932842;29;20958;-72
2021/10/26 09:49:56;;;;;;;17.90;12.63;;;13.50;99.90;;;;;;4935766;29;20477;-71
2021/10/26 09:52:27;;;;;;;14.03;12.00;;;13.50;99.90;;;;;;4936987;29;20485;-72
2021/10/26 09:55:06;;;;;;;13.80;12.40;;;13.50;99.90;;;;;;4936231;29;20465;-70
2021/10/26 09:57:34;;;;;;;14.17;11.20;;;13.50;99.90;;;;;;4935294;29;20461;-73
2021/10/26 10:00:02;;;;;;;16.90;12.30;;;13.50;99.90;;;;;;4935435;29;20477;-70
2021/10/26 10:02:29;;;;;;;14.13;11.97;;;13.50;99.90;;;;;;4934880;29;20508;-72
2021/10/26 10:04:58;;;;;;;14.17;11.57;;;13.40;99.90;;;;;;4935786;29;20807;-71
2021/10/26 10:07:32;;;;;;;12.30;10.40;;;13.50;99.90;;;;;;4935931;29;20503;-71
2021/10/26 10:10:00;;;;;;;12.47;11.23;;;13.50;99.90;;;;;;4935321;29;21002;-71
2021/10/26 10:12:28;;;;;;;12.30;11.00;;;13.50;99.90;;;;;;4935600;29;20497;-71
2021/10/26 10:14:57;;;;;;;14.30;12.27;;;13.40;99.90;;;;;;4935574;29;20472;-72
2021/10/26 10:17:25;;;;;;;13.63;11.60;;;13.40;99.90;;;;;;4934823;29;20946;-72
2021/10/26 10:19:53;;;;;;;13.40;11.13;;;13.30;99.90;;;;;;4934355;29;20492;-72
2021/10/26 10:22:25;;;;;;;11.60;10.27;;;13.30;99.90;;;;;;4935063;29;20486;-72
2021/10/26 10:24:57;;;;;;;14.27;11.00;;;13.30;99.90;;;;;;4935277;29;20533;-72
2021/10/26 10:27:29;;;;;;;12.30;10.70;;;13.30;99.90;;;;;;4936391;29;20483;-71
2021/10/26 10:29:57;;;;;;;9.73;8.73;;;13.30;99.90;;;;;;4935706;29;20457;-72
2021/10/26 10:32:26;;;;;;;10.17;8.63;;;13.40;99.90;;;;;;4929862;29;20580;-72
2021/10/26 10:34:54;;;;;;;10.20;9.20;;;13.50;99.90;;;;;;4935331;29;20465;-71
2021/10/26 10:37:23;;;;;;;10.27;9.13;;;13.50;99.90;;;;;;4934785;29;20470;-71
2021/10/26 10:39:50;;;;;;;12.00;10.17;;;13.50;99.90;;;;;;4935499;28;20906;-71
2021/10/26 10:42:22;;;;;;;13.90;9.50;;;13.50;99.90;;;;;;4923793;29;20490;-72
2021/10/26 10:44:51;;;;;;;11.07;8.80;;;13.60;99.90;;;;;;4925945;29;20473;-72
2021/10/26 10:47:40;;;;;;;10.00;9.10;;;13.70;99.90;;;;;;4927841;29;20477;-71
2021/10/26 10:50:35;;;;;;;10.77;9.67;;;13.80;99.90;;;;;;4929844;28;20481;-72
2021/10/26 10:53:14;;;;;;;9.77;8.87;;;13.90;99.90;;;;;;4908425;28;20482;-71
2021/10/26 10:55:44;;;;;;;10.53;9.47;;;14.00;99.90;;;;;;4920427;29;20462;-71
2021/10/26 10:58:30;;;;;;;10.70;9.43;;;14.00;99.90;;;;;;4924527;29;20583;-71
2021/10/26 11:01:24;;;;;;;15.50;13.20;;;14.00;99.90;;;;;;4922782;29;20494;-71
2021/10/26 11:03:53;;;;;;;13.10;11.37;;;14.00;99.90;;;;;;4927372;29;20930;-70
2021/10/26 11:06:55;;;;;;;16.00;12.00;;;14.10;99.90;;;;;;4916937;29;20518;-71
2021/10/26 11:09:53;;;;;;;14.67;10.67;;;14.00;99.90;;;;;;4915221;29;20857;-71
2021/10/26 11:12:30;;;;;;;13.20;10.20;;;13.90;99.90;;;;;;4933127;29;21014;-70
2021/10/26 11:15:00;;;;;;;11.33;10.10;;;13.80;99.90;;;;;;4931955;29;20461;-72
2021/10/26 11:17:50;;;;;;;11.00;8.73;;;13.80;99.90;;;;;;4914815;29;20466;-72
2021/10/26 11:20:40;;;;;;;15.73;9.80;;;13.80;99.90;;;;;;4914861;29;20992;-72
2021/10/26 11:23:09;;;;;;;14.33;10.40;;;13.80;99.90;;;;;;4932099;29;20465;-73
2021/10/26 11:25:37;;;;;;;9.43;8.53;;;13.80;99.90;;;;;;4933845;29;20549;-73
2021/10/26 11:28:49;;;;;;;9.53;8.63;;;13.80;99.90;;;;;;4933359;29;20817;-72
2021/10/26 11:31:24;;;;;;;9.80;8.90;;;13.80;99.90;;;;;;4933128;29;20496;-73
2021/10/26 11:33:55;;;;;;;10.27;8.63;;;13.90;99.90;;;;;;4917466;29;20557;-73
2021/10/26 11:36:30;;;;;;;11.20;8.53;;;13.90;99.90;;;;;;4925903;29;20465;-72
2021/10/26 11:38:59;;;;;;;9.13;8.00;;;14.00;99.90;;;;;;4918432;29;20848;-72
2021/10/26 11:41:27;;;;;;;9.00;8.10;;;14.00;99.90;;;;;;4925708;29;20498;-71
2021/10/26 11:43:55;;;;;;;8.63;7.83;;;14.10;99.90;;;;;;4933238;29;20461;-71
2021/10/26 11:46:30;;;;;;;12.30;7.77;;;14.10;99.90;;;;;;4933614;29;20966;-71
2021/10/26 11:49:01;;;;;;;10.03;8.80;;;14.10;99.90;;;;;;4932369;29;20527;-71
2021/10/26 11:51:29;;;;;;;9.00;8.20;;;14.10;99.90;;;;;;4915608;29;20490;-71
2021/10/26 11:53:59;;;;;;;10.37;9.20;;;14.10;99.90;;;;;;4914502;29;20470;-71
2021/10/26 11:56:29;;;;;;;11.93;9.13;;;14.20;99.90;;;;;;4914518;29;20478;-70
2021/10/26 11:59:01;;;;;;;10.77;8.60;;;14.20;99.90;;;;;;4914003;29;20521;-70
2021/10/26 12:01:42;;;;;;;10.17;9.20;;;14.20;99.90;;;;;;4914156;29;20505;-71
2021/10/26 12:04:14;;;;;;;8.90;8.00;;;14.30;99.90;;;;;;4914777;29;20530;-71
2021/10/26 12:06:41;;;;;;;9.97;7.33;;;14.30;99.90;;;;;;4930039;29;20473;-72
2021/10/26 12:09:11;;;;;;;9.77;8.27;;;14.30;99.90;;;;;;4937280;28;20530;-71
2021/10/26 12:11:40;;;;;;;11.67;7.50;;;14.30;99.90;;;;;;4931412;29;21028;-73
2021/10/26 12:14:28;;;;;;;7.57;6.83;;;14.30;99.90;;;;;;4933049;29;20466;-73
2021/10/26 12:17:07;;;;;;;10.90;8.57;;;14.30;99.90;;;;;;4921928;29;20493;-72
2021/10/26 12:19:35;;;;;;;9.67;8.40;;;14.30;99.90;;;;;;4929691;29;21081;-72
2021/10/26 12:22:02;;;;;;;8.30;7.50;;;14.50;99.90;;;;;;4936348;28;20500;-72
2021/10/26 12:24:31;;;;;;;7.57;6.40;;;14.50;99.90;;;;;;4933870;29;20473;-72
2021/10/26 12:27:00;;;;;;;9.37;7.57;;;14.50;99.90;;;;;;4929815;29;20470;-72
2021/10/26 12:29:34;;;;;;;7.70;7.00;;;14.60;99.90;;;;;;4925266;29;20466;-73
2021/10/26 12:32:03;;;;;;;9.90;7.50;;;14.70;99.90;;;;;;4932230;28;20568;-72
2021/10/26 12:34:35;;;;;;;7.53;6.43;;;14.70;99.90;;;;;;4930179;28;20838;-72
2021/10/26 12:37:32;;;;;;;11.70;7.50;;;14.70;99.90;;;;;;4933147;29;21013;-72
2021/10/26 12:40:01;;;;;;;9.90;8.97;;;14.70;99.90;;;;;;4923559;28;20543;-72
2021/10/26 12:42:37;;;;;;;9.67;8.10;;;14.70;99.90;;;;;;4929272;29;20520;-73
2021/10/26 12:45:06;;;;;;;10.10;7.70;;;14.70;99.90;;;;;;4936601;29;20662;-73
2021/10/26 12:47:54;;;;;;;8.00;7.20;;;14.70;99.90;;;;;;4924738;29;20466;-73
2021/10/26 12:50:27;;;;;;;11.57;8.33;;;14.70;99.90;;;;;;4918155;29;20554;-73
2021/10/26 12:53:17;;;;;;;8.20;7.40;;;14.70;99.90;;;;;;4926516;29;20950;-73
2021/10/26 12:55:45;;;;;;;8.67;7.77;;;14.60;99.90;;;;;;4933374;29;20496;-73
2021/10/26 12:58:34;;;;;;;7.73;6.90;;;14.70;99.90;;;;;;4938609;28;20469;-73
2021/10/26 13:01:02;;;;;;;8.37;7.57;;;14.70;99.90;;;;;;4924613;29;20505;-73
2021/10/26 13:03:30;;;;;;;9.43;7.00;;;14.70;99.90;;;;;;4926721;29;20477;-73
2021/10/26 13:06:04;;;;;;;10.87;7.77;;;14.70;99.90;;;;;;4934720;29;20462;-73
2021/10/26 13:08:32;;;;;;;6.70;6.13;;;14.70;99.90;;;;;;4935803;29;20493;-73
2021/10/26 13:10:59;;;;;;;7.53;6.83;;;14.70;99.90;;;;;;4929942;29;20824;-73
2021/10/26 13:13:25;;;;;;;7.97;7.00;;;14.70;99.90;;;;;;4934303;29;20513;-73
2021/10/26 13:15:54;;;;;;;8.30;6.63;;;14.70;99.90;;;;;;4925237;29;20469;-73
2021/10/26 13:18:24;;;;;;;7.37;6.77;;;14.70;99.90;;;;;;4925346;29;20470;-73
2021/10/26 13:20:53;;;;;;;6.90;6.40;;;14.60;99.90;;;;;;4921769;29;20481;-73
2021/10/26 13:23:32;;;;;;;7.27;6.57;;;14.60;99.90;;;;;;4927649;29;20465;-72
2021/10/26 13:26:01;;;;;;;8.30;6.60;;;14.60;99.90;;;;;;4932326;29;20466;-73
2021/10/26 13:28:29;;;;;;;6.50;5.97;;;14.50;99.90;;;;;;4927850;29;20469;-73
2021/10/26 13:30:59;;;;;;;10.33;6.83;;;14.50;99.90;;;;;;4930444;29;20892;-72
2021/10/26 13:33:27;;;;;;;6.90;5.67;;;14.40;99.90;;;;;;4928468;29;20468;-73
2021/10/26 13:35:54;;;;;;;10.47;6.80;;;14.50;99.90;;;;;;4926159;29;20478;-73
2021/10/26 13:38:23;;;;;;;10.13;6.00;;;14.40;99.90;;;;;;4916561;29;20502;-73
2021/10/26 13:40:52;;;;;;;6.93;6.37;;;14.40;99.90;;;;;;4925326;29;20551;-73
2021/10/26 13:43:21;;;;;;;5.50;5.10;;;14.40;99.90;;;;;;4915919;29;20497;-73
2021/10/26 13:45:48;;;;;;;6.53;5.93;;;14.30;99.90;;;;;;4924406;29;20501;-73
2021/10/26 13:48:17;;;;;;;7.60;6.23;;;14.30;99.90;;;;;;4927309;29;20473;-73
2021/10/26 13:50:46;;;;;;;6.40;5.90;;;14.30;99.90;;;;;;4945300;28;20563;-73
2021/10/26 13:53:13;;;;;;;6.93;6.20;;;14.30;99.90;;;;;;4928662;28;20477;-73
2021/10/26 13:55:42;;;;;;;8.10;6.70;;;14.30;99.90;;;;;;4923087;29;20499;-72
2021/10/26 13:58:11;;;;;;;7.23;5.30;;;14.30;99.90;;;;;;4916202;29;20809;-72
2021/10/26 14:00:40;;;;;;;7.53;6.27;;;14.30;99.90;;;;;;4942449;29;20553;-73
2021/10/26 14:03:07;;;;;;;6.90;6.20;;;14.30;99.90;;;;;;4927661;29;20525;-73
2021/10/26 14:05:34;;;;;;;7.00;6.30;;;14.30;99.90;;;;;;4929506;29;20827;-73
2021/10/26 14:08:01;;;;;;;6.63;6.03;;;14.20;99.90;;;;;;4926195;29;20898;-73
2021/10/26 14:10:28;;;;;;;7.03;6.20;;;14.20;99.90;;;;;;4933973;29;20472;-72
2021/10/26 14:12:54;;;;;;;8.00;6.60;;;14.10;99.90;;;;;;4927987;29;20469;-72
2021/10/26 14:15:22;;;;;;;11.27;7.40;;;14.00;99.90;;;;;;4931581;29;20948;-72
2021/10/26 14:17:49;;;;;;;7.20;6.50;;;14.00;99.90;;;;;;4925289;29;20472;-72
2021/10/26 14:20:19;;;;;;;6.53;5.93;;;14.00;99.90;;;;;;4941606;28;20487;-72
2021/10/26 14:22:48;;;;;;;10.07;7.07;;;13.90;99.90;;;;;;4940198;28;20923;-72
2021/10/26 14:25:15;;;;;;;10.57;5.67;;;13.90;99.90;;;;;;4932049;29;20820;-72
2021/10/26 14:27:42;;;;;;;9.80;7.90;;;13.80;99.90;;;;;;4940886;28;20466;-74
2021/10/26 14:30:10;;;;;;;8.90;6.80;;;13.80;99.90;;;;;;4934307;29;20461;-74
2021/10/26 14:32:38;;;;;;;6.63;5.47;;;13.80;99.90;;;;;;4926094;29;20552;-73
2021/10/26 14:35:09;;;;;;;8.40;7.50;;;13.80;99.90;;;;;;4934126;29;20539;-73
2021/10/26 14:37:46;;;;;;;8.90;8.07;;;13.80;99.90;;;;;;4924954;29;20457;-73
2021/10/26 14:40:38;;;;;;;8.93;8.10;;;13.80;99.90;;;;;;4930939;29;20568;-73
2021/10/26 14:54:09;;;;;;;7.07;6.33;;;13.60;99.90;;;;;;4921144;29;20578;-73
2021/10/26 14:56:38;;;;;;;7.43;6.73;;;13.60;99.90;;;;;;4933958;29;20925;-73
2021/10/26 14:59:06;;;;;;;8.70;7.30;;;13.60;99.90;;;;;;4931107;28;20549;-72
2021/10/26 15:01:35;;;;;;;7.50;6.80;;;13.60;99.90;;;;;;4915305;29;20565;-72
2021/10/26 15:04:04;;;;;;;8.40;7.60;;;13.50;99.90;;;;;;4915879;29;20525;-72
2021/10/26 15:06:32;;;;;;;10.43;6.97;;;13.50;99.90;;;;;;4916379;29;20462;-72
2021/10/26 15:09:02;;;;;;;8.00;7.20;;;13.40;99.90;;;;;;4926309;29;20453;-72
2021/10/26 15:11:33;;;;;;;12.20;6.40;;;13.40;99.90;;;;;;4915580;29;20510;-72
2021/10/26 15:14:04;;;;;;;9.57;8.63;;;13.40;99.90;;;;;;4924838;29;20457;-72
2021/10/26 15:16:32;;;;;;;8.77;7.20;;;13.30;99.90;;;;;;4923806;29;20466;-72
2021/10/26 15:19:02;;;;;;;9.90;6.60;;;13.30;99.90;;;;;;4936614;29;20462;-72
2021/10/26 15:21:35;;;;;;;7.40;6.70;;;13.30;99.90;;;;;;4946269;29;20551;-71
2021/10/26 15:24:15;;;;;;;6.93;6.40;;;13.30;99.90;;;;;;4927359;29;20479;-72
2021/10/26 15:34:54;;;;;;;9.80;8.80;;;13.10;99.90;;;;;;4934662;29;20537;-72
2021/10/26 15:37:22;;;;;;;7.30;6.57;;;13.10;99.90;;;;;;4929884;29;20262;-72
2021/10/26 15:39:50;;;;;;;7.10;6.60;;;13.10;99.90;;;;;;4915780;29;20545;-72
2021/10/26 15:42:16;;;;;;;12.20;7.27;;;13.10;99.90;;;;;;4933195;29;20485;-73
2021/10/26 15:44:43;;;;;;;8.03;6.50;;;13.10;99.90;;;;;;4920548;29;20470;-72
2021/10/26 15:47:11;;;;;;;9.70;8.90;;;13.10;99.90;;;;;;4927010;29;20474;-72
2021/10/26 15:49:38;;;;;;;8.97;8.00;;;13.00;99.90;;;;;;4915334;29;20876;-72
2021/10/26 15:52:06;;;;;;;8.60;7.07;;;13.00;99.90;;;;;;4921083;29;20600;-72
2021/10/26 15:54:35;;;;;;;7.67;6.87;;;13.00;99.90;;;;;;4940931;29;20465;-72
2021/10/26 15:57:02;;;;;;;10.73;8.63;;;13.00;99.90;;;;;;4929082;29;20471;-72
2021/10/26 15:59:29;;;;;;;12.13;10.83;;;12.90;99.90;;;;;;4923127;29;20991;-72
2021/10/26 16:01:57;;;;;;;12.03;9.80;;;12.90;99.90;;;;;;4914109;29;20557;-72
2021/10/26 16:04:24;;;;;;;12.50;10.97;;;12.80;99.90;;;;;;4919416;29;20477;-72
2021/10/26 16:06:51;;;;;;;12.13;10.40;;;12.80;99.90;;;;;;4916862;29;20463;-72
2021/10/26 16:09:21;;;;;;;10.67;9.77;;;12.80;99.90;;;;;;4941287;29;20934;-72
2021/10/26 16:11:53;;;;;;;9.10;8.10;;;12.80;99.90;;;;;;4932946;29;20552;-73
2021/10/26 16:14:20;;;;;;;10.30;9.20;;;12.80;99.90;;;;;;4924814;29;20561;-74
2021/10/26 16:16:48;;;;;;;12.90;11.63;;;12.70;99.90;;;;;;4923187;29;20871;-74
2021/10/26 16:19:14;;;;;;;9.57;7.90;;;12.70;99.90;;;;;;4923265;29;20471;-73
2021/10/26 16:21:42;;;;;;;10.80;9.67;;;12.70;99.90;;;;;;4926354;29;20571;-73
2021/10/26 16:24:09;;;;;;;8.87;7.90;;;12.70;99.90;;;;;;4930000;29;20503;-72
2021/10/26 16:26:39;;;;;;;8.40;6.87;;;12.70;99.90;;;;;;4929216;28;20473;-72
2021/10/26 16:29:07;;;;;;;7.70;7.00;;;12.70;99.90;;;;;;4925811;29;20565;-73
2021/10/26 16:31:34;;;;;;;8.23;7.43;;;12.70;99.90;;;;;;4938323;29;20613;-73
2021/10/26 16:34:01;;;;;;;8.73;7.50;;;12.60;99.90;;;;;;4921907;29;20470;-72
2021/10/26 16:36:31;;;;;;;9.03;7.60;;;12.60;99.90;;;;;;4927570;29;20987;-72
2021/10/26 16:38:59;;;;;;;11.33;7.30;;;12.70;99.90;;;;;;4929649;29;20478;-72
2021/10/26 16:41:27;;;;;;;8.00;7.20;;;12.60;99.90;;;;;;4916108;29;20516;-72
2021/10/26 16:44:05;;;;;;;9.13;8.23;;;12.70;99.90;;;;;;4925696;29;21047;-73
2021/10/26 16:46:42;;;;;;;17.75;9.60;;;12.70;99.90;;;;;;4918082;29;20466;-71
2021/10/26 16:49:10;;;;;;;9.48;8.52;;;12.70;99.90;;;;;;4937575;29;20196;-72
2021/10/26 16:51:37;;;;;;;9.93;9.00;;;12.60;99.90;;;;;;4922767;29;20306;-73
2021/10/26 16:54:03;;;;;;;8.70;7.80;;;12.60;99.90;;;;;;4921028;29;20466;-72
2021/10/26 16:56:30;;;;;;;10.43;8.90;;;12.60;99.90;;;;;;4939762;29;20209;-72
2021/10/26 16:58:58;;;;;;;9.63;8.70;;;12.60;99.90;;;;;;4921298;29;20548;-75
2021/10/26 17:01:28;;;;;;;14.38;8.48;;;12.60;99.90;;;;;;4935532;29;20502;-72
2021/10/26 17:04:00;;;;;;;8.40;7.53;;;12.60;99.90;;;;;;4943003;28;20209;-71
2021/10/26 17:06:27;;;;;;;14.50;13.18;;;12.60;99.90;;;;;;4931520;29;20465;-70
2021/10/26 17:08:54;;;;;;;8.70;7.93;;;12.50;99.90;;;;;;4926781;29;20213;-71
2021/10/26 17:11:20;;;;;;;9.75;8.73;;;12.50;99.90;;;;;;4931850;29;20681;-70
2021/10/26 17:13:48;;;;;;;8.65;7.47;;;12.50;99.90;;;;;;4928748;29;20206;-74